Data for 08/23/2018

Time Sea-Level Adjusted Pressure Absolute Pressure Temperature Relative Humidity Dew Point   
(mb) (inHg) (mb) (inHg) (C) (F) (%) (C) (F)
00:05 1018 30.06 847 25.01 13.2 55.7 61 5.8 42.5
00:10 1018 30.06 847 25.01 13.1 55.7 61 5.8 42.5
00:15 1018 30.06 847 25.01 13.1 55.6 62 6 42.7
00:20 1018 30.06 847 25.01 13 55.4 61 5.7 42.3
00:25 1018 30.06 847 25.01 13.3 55.9 61 5.9 42.5
00:30 1018 30.06 847 25.01 13.2 55.7 61 5.9 42.5
00:35 1018 30.06 847 25.01 13 55.4 62 6 42.8
00:40 1018 30.06 847 25.01 12.9 55.3 62 5.9 42.6
00:45 1018 30.06 847 25.01 12.8 55.1 62 5.9 42.6
00:50 1018 30.06 847 25.01 12.8 55 63 5.9 42.6
00:55 1018 30.06 847 25.01 12.7 54.9 61 5.6 42
01:00 1018 30.06 847 25.01 12.8 55 61 5.5 42
01:05 1018 30.06 847 25.01 12.8 55 61 5.6 42
01:10 1018 30.06 847 25.01 12.7 54.9 62 5.7 42.3
01:15 1018 30.06 847 25.01 12.5 54.4 64 5.9 42.6
01:20 1018 30.06 847 25.01 12.3 54.1 64 5.7 42.3
01:25 1018 30.06 847 25.01 12.2 54 64 5.7 42.3
01:30 1018 30.06 847 25.01 12.3 54.1 63 5.6 42
01:35 1018 30.06 847 25.01 12.4 54.3 62 5.4 41.7
01:40 1018 30.06 847 25.01 12.4 54.4 62 5.5 42
01:45 1018 30.06 847 25.01 12.4 54.3 62 5.4 41.7
01:50 1018 30.06 847 25.01 12.4 54.3 62 5.4 41.7
01:55 1018 30.06 847 25.01 12.2 54 63 5.5 41.9
02:00 1018 30.06 847 25.01 12.1 53.7 64 5.5 41.9
02:05 1018 30.06 847 25.01 12 53.5 65 5.6 42
02:10 1018 30.06 847 25.01 11.8 53.2 66 5.6 42.2
02:15 1018 30.06 847 25.01 11.7 53.1 66 5.6 42
02:20 1018 30.06 847 25.01 11.7 53.1 66 5.7 42.2
02:25 1018 30.06 847 25.01 11.7 53 65 5.5 41.8
02:30 1018 30.06 847 25.01 11.5 52.6 66 5.5 41.9
02:35 1018 30.06 847 25.01 11.2 52.2 68 5.5 42
02:40 1018 30.06 847 25.01 11.1 52 67 5.3 41.6
02:45 1018 30.06 847 25.01 11 51.9 67 5.3 41.5
02:50 1018 30.06 847 25.01 10.9 51.5 69 5.4 41.7
02:55 1018 30.06 847 25.01 10.5 51 69 5.1 41.2
03:00 1018 30.06 847 25.01 10.5 50.9 68 4.9 40.8
03:05 1017 30.03 847 25.01 10.6 51.1 67 4.9 40.8
03:10 1017 30.03 847 25.01 10.6 51.1 67 4.8 40.6
03:15 1017 30.03 847 25.01 10.5 50.9 67 4.8 40.6
03:20 1017 30.03 847 25.01 10.5 50.9 67 4.8 40.6
03:25 1017 30.03 847 25.01 10.5 50.8 67 4.7 40.4
03:30 1018 30.06 847 25.01 10.2 50.4 67 4.5 40.1
03:35 1017 30.03 847 25.01 10.3 50.5 65 4 39.2
03:40 1017 30.03 847 25.01 10.7 51.2 64 4.1 39.3
03:45 1018 30.06 847 25.01 11 51.7 61 3.7 38.7
03:50 1017 30.03 847 25.01 11.4 52.5 59 3.8 38.8
03:55 1018 30.06 847 25.01 11.5 52.7 60 4 39.3
04:00 1018 30.06 847 25.01 11.5 52.6 59 3.8 38.8
04:05 1018 30.06 847 25.01 11.4 52.6 60 4 39.1
04:10 1018 30.06 847 25.01 11.2 52.2 61 4 39.3
04:15 1018 30.06 847 25.01 11.2 52.2 60 3.8 38.8
04:20 1018 30.06 847 25.01 11.4 52.6 60 4 39.2
04:25 1018 30.06 847 25.01 11.5 52.7 61 4.2 39.6
04:30 1018 30.06 847 25.01 11.4 52.4 60 3.9 39
04:35 1018 30.06 847 25.01 11.5 52.6 60 4.1 39.4
04:40 1018 30.06 847 25.01 11.3 52.4 61 4.2 39.6
04:45 1018 30.06 847 25.01 11.1 51.9 61 4 39.2
04:50 1018 30.06 847 25.01 11.3 52.3 61 4.1 39.3
04:55 1018 30.06 847 25.01 11.1 52.1 64 4.7 40.5
05:00 1018 30.06 847 25.01 10.7 51.2 65 4.4 39.9
05:05 1018 30.06 847 25.01 10.8 51.5 64 4.3 39.8
05:10 1018 30.06 847 25.01 11.2 52.2 60 3.8 38.8
05:15 1018 30.06 847 25.01 11.6 52.9 60 4.1 39.3
05:20 1018 30.06 847 25.01 11.7 53.1 60 4.3 39.7
05:25 1018 30.06 847 25.01 11.6 52.9 62 4.6 40.3
05:30 1018 30.06 847 25.01 11.4 52.6 64 5 40.9
05:35 1018 30.06 847 25.01 11.1 52 65 4.9 40.8
05:40 1018 30.06 847 25.01 10.8 51.4 63 4 39.2
05:45 1018 30.06 847 25.01 11.2 52.1 62 4.3 39.7
05:50 1018 30.06 847 25.01 11.4 52.6 63 4.7 40.4
05:55 1018 30.06 847 25.01 11 51.8 66 5 41
06:00 1018 30.06 847 25.01 10.7 51.3 67 4.8 40.6
06:05 1018 30.06 847 25.01 10.7 51.3 67 4.9 40.8
06:10 1018 30.06 847 25.01 10.9 51.6 67 5.1 41.1
06:15 1018 30.06 847 25.01 11.1 52 63 4.5 40
06:20 1018 30.06 847 25.01 11.5 52.7 60 4 39.3
06:25 1018 30.06 847 25.01 12 53.7 58 4 39.1
06:30 1018 30.06 847 25.01 12.5 54.5 58 4.6 40.3
06:35 1018 30.06 847 25.01 12.3 54.1 61 5.1 41.2
06:40 1018 30.06 847 25.01 12.1 53.8 62 5.1 41.1
06:45 1018 30.06 847 25.01 12.2 54 64 5.6 42
06:50 1018 30.06 847 25.01 12.1 53.7 67 6.2 43.2
06:55 1018 30.06 847 25.01 11.3 52.4 71 6.2 43.1
07:00 1018 30.06 848 25.04 11 51.8 67 5.2 41.4
07:05 1018 30.06 848 25.04 11.3 52.3 66 5.2 41.4
07:10 1018 30.06 848 25.04 11.5 52.8 67 5.7 42.3
07:15 1018 30.06 848 25.04 11.6 53 62 4.8 40.6
07:20 1018 30.06 848 25.04 11.9 53.3 61 4.6 40.3
07:25 1018 30.06 848 25.04 12.2 54 60 4.6 40.3
07:30 1018 30.06 848 25.04 12.6 54.7 58 4.6 40.4
07:35 1018 30.06 848 25.04 13.1 55.6 56 4.5 40.2
07:40 1018 30.06 848 25.04 13.9 57 54 4.8 40.7
07:45 1018 30.06 848 25.04 14.7 58.4 51 4.7 40.5
07:50 1018 30.06 848 25.04 15 59 49 4.5 40.1
07:55 1018 30.06 848 25.04 15.2 59.4 49 4.6 40.3
08:00 1018 30.06 848 25.04 15.4 59.6 47 4.2 39.6
08:05 1018 30.06 848 25.04 15.5 59.9 49 5 41
08:10 1018 30.06 848 25.04 15.6 60 51 5.6 42
08:15 1018 30.06 848 25.04 15.5 59.9 50 5.2 41.4
08:20 1018 30.06 847 25.01 15.6 60 51 5.5 41.9
08:25 1018 30.06 847 25.01 15.7 60.3 50 5.4 41.7
08:30 1018 30.06 847 25.01 16.5 61.6 46 5 41
08:35 1018 30.06 847 25.01 16.9 62.5 45 5.1 41.2
08:40 1018 30.06 847 25.01 17.3 63.1 44 5 41.1
08:45 1018 30.06 847 25.01 17.6 63.6 43 4.8 40.7
08:50 1018 30.06 847 25.01 18 64.3 40 4.4 39.9
08:55 1018 30.06 847 25.01 18.4 65.1 42 5.4 41.7
09:00 1018 30.06 847 25.01 18.9 66 39 4.9 40.7
09:05 1018 30.06 847 25.01 18.8 65.9 37 3.9 39.1
09:10 1018 30.06 847 25.01 18.6 65.5 40 4.8 40.6
09:15 1018 30.06 847 25.01 18.8 65.8 39 4.6 40.4
09:20 1018 30.06 847 25.01 19.4 66.9 37 4.5 40.1
09:25 1018 30.06 847 25.01 19.5 67.2 37 4.6 40.3
09:30 1018 30.06 847 25.01 19.2 66.6 36 3.8 38.9
09:35 1018 30.06 847 25.01 19.1 66.4 38 4.7 40.4
09:40 1018 30.06 847 25.01 19 66.1 37 4.3 39.7
09:45 1018 30.06 847 25.01 19 66.1 37 3.9 39.1
09:50 1018 30.06 847 25.01 19.6 67.2 34 3.6 38.4
09:55 1018 30.06 847 25.01 19.6 67.3 36 4.1 39.3
10:00 1018 30.06 847 25.01 19.8 67.7 36 4.4 39.9
10:05 1018 30.06 847 25.01 19.6 67.3 36 4.3 39.7
10:10 1018 30.06 847 25.01 19.2 66.6 37 4.3 39.8
10:15 1018 30.06 847 25.01 19.2 66.5 37 4.2 39.6
10:20 1018 30.06 847 25.01 19.5 67.1 36 4.2 39.5
10:25 1018 30.06 847 25.01 19.8 67.7 36 4.5 40.1
10:30 1018 30.06 847 25.01 20.5 68.9 32 3.5 38.2
10:35 1018 30.06 847 25.01 20.9 69.6 32 3.6 38.4
10:40 1018 30.06 847 25.01 21.3 70.3 32 4.2 39.5
10:45 1018 30.06 847 25.01 21.8 71.3 31 4.1 39.4
10:50 1018 30.06 847 25.01 22 71.6 31 4.1 39.4
10:55 1018 30.06 847 25.01 21.9 71.3 31 4 39.3
11:00 1018 30.06 847 25.01 21.9 71.4 30 3.6 38.4
11:05 1018 30.06 847 25.01 22 71.7 29 3.5 38.4
11:10 1018 30.06 847 25.01 21.6 71 30 3.5 38.2
11:15 1018 30.06 847 25.01 21.6 70.9 30 3.4 38.1
11:20 1018 30.06 847 25.01 22.1 71.7 29 3.6 38.5
11:25 1018 30.06 847 25.01 22 71.6 30 4 39.2
11:30 1018 30.06 847 25.01 22.1 71.8 28 3.1 37.5
11:35 1018 30.06 847 25.01 22.6 72.6 28 3.3 38
11:40 1018 30.06 847 25.01 22.7 72.9 27 3.1 37.6
11:45 1018 30.06 847 25.01 22.5 72.5 28 3.3 37.9
11:50 1018 30.06 847 25.01 22.5 72.5 29 3.7 38.6
11:55 1018 30.06 847 25.01 22.9 73.3 25 2.2 36
12:00 1018 30.06 847 25.01 23.1 73.6 24 1.5 34.7
12:05 1018 30.06 847 25.01 23 73.5 25 2.4 36.3
12:10 1018 30.06 847 25.01 23.3 73.9 24 1.9 35.4
12:15 1018 30.06 847 25.01 23.8 74.8 24 2.2 36
12:20 1018 30.06 847 25.01 23.8 74.8 24 1.9 35.5
12:25 1018 30.06 847 25.01 23.8 74.9 23 1.8 35.2
12:30 1018 30.06 847 25.01 24 75.2 23 1.9 35.4
12:35 1018 30.06 847 25.01 24.3 75.7 23 1.8 35.3
12:40 1018 30.06 847 25.01 24.3 75.8 23 2.1 35.9
12:45 1017 30.03 847 25.01 23.9 75 24 2.1 35.7
12:50 1017 30.03 847 25.01 24.1 75.4 23 2 35.6
12:55 1017 30.03 847 25.01 24.4 75.9 22 1.7 35.1
13:00 1017 30.03 847 25.01 24.7 76.4 21 1.4 34.6
13:05 1018 30.06 847 25.01 24.6 76.3 22 1.6 34.9
13:10 1018 30.06 847 25.01 24.7 76.5 22 1.7 35.1
13:15 1018 30.06 847 25.01 24.7 76.4 22 1.9 35.5
13:20 1018 30.06 847 25.01 24.7 76.5 22 1.7 35.1
13:25 1017 30.03 847 25.01 25.2 77.4 22 2 35.6
13:30 1017 30.03 847 25.01 25.4 77.6 20 1.3 34.3
13:35 1017 30.03 847 25.01 25 76.9 21 1.5 34.7
13:40 1017 30.03 847 25.01 24.9 76.7 21 1.4 34.6
13:45 1017 30.03 847 25.01 25 77 20 1 33.8
13:50 1017 30.03 847 25.01 25.2 77.4 20 1.1 34
13:55 1017 30.03 847 25.01 25.2 77.3 20 0.7 33.3
14:00 1017 30.03 846 24.98 25.2 77.4 20 1.1 34
14:05 1017 30.03 846 24.98 25.1 77.1 19 0.4 32.7
14:10 1017 30.03 846 24.98 25 77 21 1.7 35.1
14:15 1017 30.03 846 24.98 25.7 78.2 19 0.8 33.5
14:20 1017 30.03 846 24.98 25.7 78.2 19 0.8 33.5
14:25 1017 30.03 846 24.98 25.6 78.1 19 0.6 33
14:30 1017 30.03 846 24.98 25.8 78.5 20 1.5 34.6
14:35 1017 30.03 846 24.98 25.4 77.7 22 2.1 35.8
14:40 1017 30.03 846 24.98 25.8 78.4 20 1.1 34
14:45 1017 30.03 846 24.98 25.7 78.2 20 1.1 34
14:50 1017 30.03 846 24.98 25.9 78.6 19 0.5 32.9
14:55 1017 30.03 846 24.98 25.9 78.6 21 1.9 35.4
15:00 1017 30.03 846 24.98 25.8 78.4 19 0.8 33.4
15:05 1017 30.03 846 24.98 25.8 78.5 19 0.7 33.2
15:10 1017 30.03 846 24.98 26 78.9 19 1.1 33.9
15:15 1017 30.03 846 24.98 25.9 78.7 20 1.6 34.9
15:20 1017 30.03 846 24.98 26.2 79.1 20 1.5 34.8
15:25 1017 30.03 846 24.98 26.2 79.2 19 1 33.8
15:30 1016 30 846 24.98 26.4 79.6 20 2 35.7
15:35 1016 30 846 24.98 26.7 80 19 1.5 34.7
15:40 1016 30 846 24.98 26.6 79.8 19 1.2 34.1
15:45 1016 30 846 24.98 26.6 79.8 18 0.9 33.7
15:50 1016 30 846 24.98 26.3 79.3 19 0.9 33.6
15:55 1016 30 845 24.95 26.1 79.1 20 1.6 34.9
16:00 1016 30 845 24.95 26.5 79.7 19 1.4 34.5
16:05 1016 30 845 24.95 26.7 80.1 18 0.7 33.3
16:10 1016 30 845 24.95 26.9 80.5 19 1.6 34.9
16:15 1016 30 845 24.95 26.5 79.7 19 1.5 34.8
16:20 1016 30 845 24.95 26.3 79.3 20 1.8 35.2
16:25 1016 30 845 24.95 26.1 78.9 19 1.2 34.1
16:30 1016 30 845 24.95 26 78.9 19 1.1 33.9
16:35 1016 30 845 24.95 26.2 79.2 19 1.3 34.3
16:40 1016 30 845 24.95 26.4 79.6 20 1.9 35.5
16:45 1016 30 845 24.95 26.4 79.6 19 1.5 34.7
16:50 1016 30 845 24.95 26.4 79.6 19 0.9 33.7
16:55 1016 30 845 24.95 26.3 79.3 19 1.2 34.2
17:00 1016 30 845 24.95 26.4 79.4 20 1.9 35.4
17:05 1016 30 845 24.95 26.2 79.1 21 2.1 35.8
17:10 1016 30 845 24.95 26 78.8 20 1.9 35.4
17:15 1016 30 845 24.95 25.8 78.5 19 1 33.8
17:20 1016 30 845 24.95 25.9 78.6 21 2.1 35.7
17:25 1016 30 845 24.95 26 78.7 20 1.6 34.8
17:30 1016 30 845 24.95 25.9 78.7 20 1.4 34.5
17:35 1016 30 845 24.95 25.9 78.6 20 1.5 34.7
17:40 1016 30 845 24.95 25.7 78.2 21 1.9 35.4
17:45 1016 30 845 24.95 25.5 77.9 21 2 35.7
17:50 1016 30 845 24.95 25.3 77.6 20 1.3 34.4
17:55 1016 30 845 24.95 25.3 77.5 21 1.9 35.4
18:00 1016 30 845 24.95 25.2 77.3 22 2.2 36
18:05 1016 30 845 24.95 25 77 23 2.5 36.4
18:10 1016 30 845 24.95 24.9 76.7 22 2.1 35.8
18:15 1016 30 845 24.95 24.7 76.5 25 3.4 38.1
18:20 1016 30 845 24.95 24.7 76.4 24 2.8 37
18:25 1016 30 845 24.95 24.6 76.3 23 2.4 36.3
18:30 1016 30 845 24.95 24.5 76.1 23 2.5 36.4
18:35 1016 30 845 24.95 24.4 76 23 2 35.6
18:40 1016 30 845 24.95 24.4 75.8 25 3 37.5
18:45 1016 30 845 24.95 24 75.1 29 5.2 41.4
18:50 1016 30 845 24.95 23.2 73.8 32 5.9 42.5
18:55 1016 30 845 24.95 22.7 72.9 36 7.1 44.8
19:00 1016 30 845 24.95 22.1 71.7 40 8.1 46.5
19:05 1016 30 845 24.95 21.6 70.9 40 7.6 45.6
19:10 1016 30 845 24.95 21.2 70.1 36 5.8 42.4
19:15 1016 30 845 24.95 20.8 69.5 40 7 44.6
19:20 1016 30 845 24.95 20.5 68.8 41 6.8 44.2
19:25 1016 30 845 24.95 19.9 67.8 40 6.1 43
19:30 1016 30 845 24.95 19.5 67 41 6.2 43.1
19:35 1016 30 845 24.95 19.2 66.5 42 6.1 43
19:40 1016 30 845 24.95 19 66.2 42 6 42.9
19:45 1016 30 845 24.95 18.9 65.9 42 5.9 42.6
19:50 1016 30 845 24.95 18.7 65.6 43 6.1 42.9
19:55 1016 30 845 24.95 18.4 65.2 44 6 42.8
20:00 1016 30 845 24.95 18.2 64.7 44 5.8 42.4
20:05 1016 30 845 24.95 18 64.4 44 5.7 42.3
20:10 1016 30 845 24.95 17.8 64.1 44 5.6 42.2
20:15 1016 30 845 24.95 17.7 63.9 45 5.7 42.3
20:20 1016 30 845 24.95 17.4 63.4 46 5.7 42.3
20:25 1016 30 845 24.95 17.3 63.1 45 5.3 41.5
20:30 1016 30 845 24.95 17.2 63 44 5.1 41.3
20:35 1016 30 845 24.95 17.2 62.9 44 5 41
20:40 1016 30 845 24.95 17.1 62.7 44 4.9 40.9
20:45 1016 30 845 24.95 17 62.6 44 4.8 40.7
20:50 1016 30 845 24.95 16.9 62.4 43 4.5 40.1
20:55 1016 30 845 24.95 16.8 62.2 45 4.8 40.6
21:00 1016 30 845 24.95 16.6 61.8 46 4.9 40.9
21:05 1016 30 845 24.95 16.3 61.4 47 5 41.1
21:10 1016 30 845 24.95 16.2 61.1 47 4.8 40.7
21:15 1016 30 845 24.95 16.2 61.1 46 4.6 40.3
21:20 1016 30 845 24.95 16.1 61 46 4.6 40.3
21:25 1016 30 845 24.95 16.1 61 45 4.2 39.6
21:30 1016 30 845 24.95 16.2 61.2 45 4.6 40.2
21:35 1016 30 845 24.95 15.9 60.6 48 4.9 40.8
21:40 1016 30 845 24.95 15.6 60 48 4.8 40.6
21:45 1016 30 845 24.95 15.7 60.2 45 3.8 38.9
21:50 1016 30 845 24.95 16 60.8 43 3.4 38.1
21:55 1016 30 845 24.95 16.2 61.2 45 4.5 40.2
22:00 1016 30 845 24.95 16.1 61 47 4.8 40.6
22:05 1016 30 845 24.95 15.9 60.6 47 4.7 40.5
22:10 1016 30 845 24.95 15.7 60.2 48 4.8 40.6
22:15 1016 30 845 24.95 15.4 59.7 47 4.2 39.6
22:20 1016 30 845 24.95 15.4 59.8 48 4.6 40.2
22:25 1016 30 845 24.95 15.2 59.4 48 4.3 39.8
22:30 1016 30 845 24.95 14.9 58.8 49 4.3 39.8
22:35 1016 30 845 24.95 14.9 58.9 47 3.9 39
22:40 1016 30 845 24.95 15.1 59.2 45 3.3 37.9
22:45 1016 30 845 24.95 15.4 59.8 45 3.8 38.8
22:50 1016 30 845 24.95 15.3 59.5 43 2.9 37.2
22:55 1016 30 845 24.95 15.7 60.3 43 3.1 37.7
23:00 1016 30 845 24.95 15.6 60.1 46 4.1 39.3
23:05 1016 30 845 24.95 15.1 59.1 46 3.6 38.4
23:10 1016 30 845 24.95 15.6 60 43 3 37.5
23:15 1016 30 845 24.95 15.4 59.8 45 3.7 38.7
23:20 1016 30 845 24.95 14.6 58.3 50 4.4 39.9
23:25 1016 30 845 24.95 14.2 57.6 45 2.5 36.5
23:30 1016 30 845 24.95 14.8 58.6 45 3.2 37.7
23:35 1016 30 845 24.95 14.9 58.8 45 3.2 37.8
23:40 1016 30 845 24.95 14.8 58.7 44 2.9 37.1
23:45 1016 30 845 24.95 14.9 58.8 45 3.2 37.8
23:50 1016 30 845 24.95 14.5 58.1 47 3.3 37.9
23:55 1016 30 845 24.95 14.3 57.8 46 3.1 37.6
24:00 1016 30 845 24.95 14.5 58 46 3 37.4